Time;durP1;ratioP1;P1;durP2;ratioP2;P2;SDS_P1;SDS_P2;PMS_P1;PMS_P2;Temp;Humidity;BMP_temperature;BMP_pressure;BME280_temperature;BME280_humidity;BME280_pressure;Samples;Min_cycle;Max_cycle;Signal;HPM_P1;HPM_P2
2023/04/24 00:00:21;;;;;;;;;;;;;;;19.79;46.47;99756.69;5131953;27;19911;-69
2023/04/24 00:02:46;;;;;;;;;;;;;;;19.79;46.70;99753.97;5133986;27;20390;-69
2023/04/24 00:05:12;;;;;;;;;;;;;;;19.78;46.47;99761.25;5137846;27;20402;-69
2023/04/24 00:07:37;;;;;;;;;;;;;;;19.77;46.41;99766.84;5130702;27;19950;-69
2023/04/24 00:10:03;;;;;;;;;;;;;;;19.76;46.57;99759.81;5142896;27;19911;-69
2023/04/24 00:12:28;;;;;;;;;;;;;;;19.75;46.62;99767.03;5133684;27;19915;-69
2023/04/24 00:14:53;;;;;;;;;;;;;;;19.73;46.63;99764.53;5132068;27;19923;-69
2023/04/24 00:17:20;;;;;;;;;;;;;;;19.73;46.59;99763.72;5135676;27;19922;-69
2023/04/24 00:19:46;;;;;;;;;;;;;;;19.72;46.48;99770.16;5132719;27;19954;-69
2023/04/24 00:22:13;;;;;;;;;;;;;;;19.71;46.65;99769.31;5132035;27;19919;-69
2023/04/24 00:24:38;;;;;;;;;;;;;;;19.69;46.32;99765.16;5134539;27;20371;-69
2023/04/24 00:27:03;;;;;;;;;;;;;;;19.68;46.66;99775.13;5133149;27;19941;-69
2023/04/24 00:29:28;;;;;;;;;;;;;;;19.68;46.59;99779.69;5131098;27;19918;-69
2023/04/24 00:31:53;;;;;;;;;;;;;;;19.66;46.42;99777.16;5136272;27;19937;-69
2023/04/24 00:34:19;;;;;;;;;;;;;;;19.65;46.26;99783.59;5130927;27;19947;-69
2023/04/24 00:36:44;;;;;;;;;;;;;;;19.65;46.51;99774.69;5140056;27;20288;-69
2023/04/24 00:39:09;;;;;;;;;;;;;;;19.64;46.32;99791.91;5135245;27;20734;-69
2023/04/24 00:41:35;;;;;;;;;;;;;;;19.63;46.26;99790.25;5131520;27;19923;-69
2023/04/24 00:44:00;;;;;;;;;;;;;;;19.62;46.54;99785.84;5137631;27;19964;-69
2023/04/24 00:46:25;;;;;;;;;;;;;;;19.61;46.54;99776.94;5132273;27;19919;-69
2023/04/24 00:48:50;;;;;;;;;;;;;;;19.60;46.58;99783.34;5129640;27;19943;-69
2023/04/24 00:51:16;;;;;;;;;;;;;;;19.60;46.31;99779.81;5133658;27;19991;-69
2023/04/24 00:53:41;;;;;;;;;;;;;;;19.59;46.33;99788.94;5133272;27;19915;-69
2023/04/24 00:56:06;;;;;;;;;;;;;;;19.58;46.32;99780.03;5131546;27;19912;-69
2023/04/24 00:58:31;;;;;;;;;;;;;;;19.58;46.19;99781.88;5133775;27;19915;-69
2023/04/24 01:00:57;;;;;;;;;;;;;;;19.57;46.39;99780.22;5113261;28;19915;-69
2023/04/24 01:03:24;;;;;;;;;;;;;;;19.56;46.08;99779.38;5122563;27;19912;-69
2023/04/24 01:05:49;;;;;;;;;;;;;;;19.56;46.34;99775.84;5137429;27;19911;-69
2023/04/24 01:08:14;;;;;;;;;;;;;;;19.55;46.41;99779.59;5132904;27;19912;-69
2023/04/24 01:10:40;;;;;;;;;;;;;;;19.54;46.37;99783.28;5134494;27;19922;-70
2023/04/24 01:13:05;;;;;;;;;;;;;;;19.53;46.49;99787.03;5131007;27;19924;-69
2023/04/24 01:15:31;;;;;;;;;;;;;;;19.54;46.16;99796.78;5133324;27;19934;-69
2023/04/24 01:17:56;;;;;;;;;;;;;;;19.51;46.27;99787.25;5131492;27;19981;-69
2023/04/24 01:20:21;;;;;;;;;;;;;;;19.51;46.47;99784.53;5132150;27;20361;-69
2023/04/24 01:22:46;;;;;;;;;;;;;;;19.51;46.28;99783.72;5114469;27;19917;-69
2023/04/24 01:25:11;;;;;;;;;;;;;;;19.49;46.41;99790.13;5131088;27;19947;-69
2023/04/24 01:27:37;;;;;;;;;;;;;;;19.48;46.20;99793.03;5132932;27;19912;-70
2023/04/24 01:30:02;;;;;;;;;;;;;;;19.47;46.35;99794.88;5119437;27;19954;-69
2023/04/24 01:32:28;;;;;;;;;;;;;;;19.46;46.30;99793.22;5135657;27;19916;-69
2023/04/24 01:34:53;;;;;;;;;;;;;;;19.45;46.35;99794.28;5122665;28;20356;-69
2023/04/24 01:37:18;;;;;;;;;;;;;;;19.45;46.35;99796.09;5136937;27;19911;-69
2023/04/24 01:39:43;;;;;;;;;;;;;;;19.44;46.21;99795.28;5133390;27;19912;-69
2023/04/24 01:42:09;;;;;;;;;;;;;;;19.44;46.08;99792.59;5129421;27;20009;-69
2023/04/24 01:44:34;;;;;;;;;;;;;;;19.43;46.17;99792.78;5125628;27;19934;-69
2023/04/24 01:47:00;;;;;;;;;;;;;;;19.43;46.16;99795.50;5125717;27;19912;-69
2023/04/24 01:49:25;;;;;;;;;;;;;;;19.42;46.24;99793.84;5131255;27;19916;-69
2023/04/24 01:51:50;;;;;;;;;;;;;;;19.41;46.07;99797.53;5130105;27;19971;-69
2023/04/24 01:54:15;;;;;;;;;;;;;;;19.40;46.05;99802.09;5134972;27;19919;-69
2023/04/24 01:56:41;;;;;;;;;;;;;;;19.39;46.21;99799.63;5130183;27;20698;-69
2023/04/24 01:59:06;;;;;;;;;;;;;;;19.38;46.25;99796.09;5132397;27;19961;-69
2023/04/24 02:01:37;;;;;;;;;;;;;;;19.38;46.09;99798.78;5131988;27;19920;-69
2023/04/24 02:04:03;;;;;;;;;;;;;;;19.38;46.12;99801.47;5135648;27;19956;-69
2023/04/24 02:06:28;;;;;;;;;;;;;;;19.37;46.41;99805.22;5135628;27;20333;-68
2023/04/24 02:08:54;;;;;;;;;;;;;;;19.37;46.25;99801.66;5130737;27;19911;-69
2023/04/24 02:11:19;;;;;;;;;;;;;;;19.35;46.34;99801.03;5132474;27;19911;-69
2023/04/24 02:13:44;;;;;;;;;;;;;;;19.34;46.08;99802.06;5128375;28;19920;-69
2023/04/24 02:16:09;;;;;;;;;;;;;;;18.86;46.52;99721.13;5131573;27;19928;-69
2023/04/24 02:18:35;;;;;;;;;;;;;;;19.33;46.36;99795.84;5131188;28;19904;-69
2023/04/24 02:21:00;;;;;;;;;;;;;;;19.32;46.25;99796.03;5131725;28;19938;-69
2023/04/24 02:23:26;;;;;;;;;;;;;;;19.31;46.46;99787.13;5130305;28;19912;-69
2023/04/24 02:25:53;;;;;;;;;;;;;;;19.31;46.37;99783.59;5132045;27;20010;-69
2023/04/24 02:28:18;;;;;;;;;;;;;;;19.30;46.35;99793.56;5132811;28;19911;-69
2023/04/24 02:30:43;;;;;;;;;;;;;;;19.29;46.14;99791.91;5135603;28;19937;-69
2023/04/24 02:33:08;;;;;;;;;;;;;;;19.28;46.38;99797.47;5137258;28;19951;-69
2023/04/24 02:35:33;;;;;;;;;;;;;;;19.29;46.45;99796.47;5116524;28;20032;-69
2023/04/24 02:37:59;;;;;;;;;;;;;;;19.28;46.30;99800.97;5134050;28;19918;-69
2023/04/24 02:40:24;;;;;;;;;;;;;;;19.27;46.02;99795.81;5131122;28;19916;-69
2023/04/24 02:42:49;;;;;;;;;;;;;;;19.27;46.12;99809.28;5129820;28;19918;-69
2023/04/24 02:45:14;;;;;;;;;;;;;;;19.25;46.26;99801.41;5130967;28;20421;-69
2023/04/24 02:47:40;;;;;;;;;;;;;;;19.25;46.16;99801.41;5130933;28;19924;-69
2023/04/24 02:50:05;;;;;;;;;;;;;;;19.23;45.97;99796.19;5130719;27;19908;-69
2023/04/24 02:52:30;;;;;;;;;;;;;;;19.23;46.09;99803.44;5130867;28;19939;-69
2023/04/24 02:54:56;;;;;;;;;;;;;;;19.22;46.20;99799.94;5134228;27;19915;-69
2023/04/24 02:57:21;;;;;;;;;;;;;;;19.23;46.18;99811.53;5130615;28;19912;-69
2023/04/24 02:59:46;;;;;;;;;;;;;;;19.21;46.30;99803.66;5133687;28;19937;-69
2023/04/24 03:02:11;;;;;;;;;;;;;;;19.21;46.30;99800.13;5131390;28;19924;-69
2023/04/24 03:04:36;;;;;;;;;;;;;;;19.19;46.14;99794.09;5131328;28;19961;-69
2023/04/24 03:07:02;;;;;;;;;;;;;;;19.20;45.99;99798.47;5133216;28;19918;-69
2023/04/24 03:09:27;;;;;;;;;;;;;;;19.19;46.41;99802.19;5129513;28;19919;-69
2023/04/24 03:11:52;;;;;;;;;;;;;;;19.18;46.00;99798.66;5130474;28;19912;-69
2023/04/24 03:14:17;;;;;;;;;;;;;;;19.17;46.23;99801.56;5128979;28;19920;-69
2023/04/24 03:16:42;;;;;;;;;;;;;;;19.17;46.30;99810.47;5129621;28;19916;-69
2023/04/24 03:19:07;;;;;;;;;;;;;;;19.16;46.12;99806.13;5128798;28;19916;-70
2023/04/24 03:21:33;;;;;;;;;;;;;;;19.16;46.21;99810.69;5133213;28;19979;-69
2023/04/24 03:23:58;;;;;;;;;;;;;;;19.15;46.34;99820.59;5130937;27;19912;-69
2023/04/24 03:26:23;;;;;;;;;;;;;;;19.13;46.15;99814.59;5139482;27;19918;-69
2023/04/24 03:28:48;;;;;;;;;;;;;;;19.14;46.26;99818.09;5137064;27;19947;-69
2023/04/24 03:31:15;;;;;;;;;;;;;;;19.13;46.08;99821.84;5133089;27;19918;-69
2023/04/24 03:33:40;;;;;;;;;;;;;;;19.11;46.15;99816.63;5116056;27;19912;-69
2023/04/24 03:36:05;;;;;;;;;;;;;;;19.12;46.32;99814.78;5133201;27;20014;-69
2023/04/24 03:38:30;;;;;;;;;;;;;;;19.11;45.94;99822.00;5133189;27;19920;-69
2023/04/24 03:40:56;;;;;;;;;;;;;;;19.11;45.95;99821.19;5132270;27;19919;-69
2023/04/24 03:43:21;;;;;;;;;;;;;;;19.10;46.43;99823.06;5134026;27;19912;-69
2023/04/24 03:45:46;;;;;;;;;;;;;;;19.10;46.36;99830.31;5133174;27;19912;-70
2023/04/24 03:48:11;;;;;;;;;;;;;;;19.09;46.25;99828.66;5133370;27;19922;-69
2023/04/24 03:50:36;;;;;;;;;;;;;;;19.09;46.21;99825.94;5134839;27;19956;-69
2023/04/24 03:53:01;;;;;;;;;;;;;;;19.07;46.29;99834.22;5135186;27;19984;-69
2023/04/24 03:55:27;;;;;;;;;;;;;;;19.08;46.20;99837.75;5138311;27;19912;-68
2023/04/24 03:57:52;;;;;;;;;;;;;;;19.07;46.20;99839.59;5132024;27;20284;-69
2023/04/24 04:00:18;;;;;;;;;;;;;;;19.07;46.34;99838.78;5136399;27;19950;-69
2023/04/24 04:02:43;;;;;;;;;;;;;;;19.05;46.22;99841.66;5131537;27;19953;-69
2023/04/24 04:05:08;;;;;;;;;;;;;;;19.05;46.37;99838.16;5132764;27;19912;-69
2023/04/24 04:07:34;;;;;;;;;;;;;;;19.04;46.34;99849.97;5134413;27;19916;-69
2023/04/24 04:09:59;;;;;;;;;;;;;;;19.04;46.12;99847.25;5132654;27;19911;-70
2023/04/24 04:12:24;;;;;;;;;;;;;;;19.02;46.20;99847.44;5131506;27;19922;-69
2023/04/24 04:14:50;;;;;;;;;;;;;;;19.02;46.14;99850.13;5132557;27;19923;-69
2023/04/24 04:17:17;;;;;;;;;;;;;;;19.01;46.29;99853.88;5131944;27;21587;-69
2023/04/24 04:19:42;;;;;;;;;;;;;;;19.01;46.29;99853.03;5131484;27;19916;-70
2023/04/24 04:22:07;;;;;;;;;;;;;;;19.01;46.22;99861.13;5136328;27;19920;-70
2023/04/24 04:24:33;;;;;;;;;;;;;;;19.00;46.08;99860.28;5131276;27;19919;-73
2023/04/24 04:26:59;;;;;;;;;;;;;;;19.00;46.15;99860.28;5134024;27;19926;-70
2023/04/24 04:29:24;;;;;;;;;;;;;;;19.00;46.16;99871.06;5135976;27;19916;-70
2023/04/24 04:31:49;;;;;;;;;;;;;;;19.02;46.54;99873.56;5132402;27;19926;-69
2023/04/24 04:34:14;;;;;;;;;;;;;;;19.02;46.54;99879.75;5131932;27;19916;-69
2023/04/24 04:36:40;;;;;;;;;;;;;;;19.03;46.37;99884.16;5132216;27;19923;-70
2023/04/24 04:39:05;;;;;;;;;;;;;;;19.03;46.35;99888.69;5132528;27;19965;-70
2023/04/24 04:41:31;;;;;;;;;;;;;;;19.03;46.49;99888.69;5133190;27;19915;-70
2023/04/24 04:43:58;;;;;;;;;;;;;;;19.03;46.41;99892.22;5131318;27;20014;-72
2023/04/24 04:46:25;;;;;;;;;;;;;;;19.04;46.71;99896.59;5131854;27;19916;-71
2023/04/24 04:48:51;;;;;;;;;;;;;;;19.06;46.70;99896.38;5122724;27;19963;-72
2023/04/24 04:51:16;;;;;;;;;;;;;;;19.06;47.11;99902.59;5134034;27;19918;-72
2023/04/24 04:53:41;;;;;;;;;;;;;;;19.06;47.23;99899.91;5135916;27;19915;-72
2023/04/24 04:56:07;;;;;;;;;;;;;;;19.06;46.97;99899.91;5137180;27;19939;-72
2023/04/24 04:58:32;;;;;;;;;;;;;;;19.06;46.97;99899.91;5116930;27;19911;-71
2023/04/24 05:00:58;;;;;;;;;;;;;;;19.07;47.36;99901.56;5129937;27;19923;-72
2023/04/24 05:03:23;;;;;;;;;;;;;;;19.08;47.23;99905.94;5131525;27;19922;-72
2023/04/24 05:05:48;;;;;;;;;;;;;;;19.08;47.47;99905.13;5130195;27;20388;-73
2023/04/24 05:08:13;;;;;;;;;;;;;;;19.07;47.34;99906.94;5109366;27;20296;-74
2023/04/24 05:10:39;;;;;;;;;;;;;;;19.09;47.41;99907.59;5129987;27;19911;-69
2023/04/24 05:13:04;;;;;;;;;;;;;;;19.09;47.44;99904.09;5130385;27;19920;-71
2023/04/24 05:15:30;;;;;;;;;;;;;;;19.09;47.36;99907.59;5133784;27;19927;-69
2023/04/24 05:17:55;;;;;;;;;;;;;;;19.09;47.21;99907.59;5130544;27;19933;-69
2023/04/24 05:20:20;;;;;;;;;;;;;;;19.10;47.41;99913.81;5135026;27;19920;-69
2023/04/24 05:22:45;;;;;;;;;;;;;;;19.10;47.45;99911.13;5134908;27;19920;-71
2023/04/24 05:25:12;;;;;;;;;;;;;;;19.10;47.51;99921.91;5133200;27;19931;-69
2023/04/24 05:27:37;;;;;;;;;;;;;;;19.10;47.70;99920.03;5131619;27;19919;-69
2023/04/24 05:30:02;;;;;;;;;;;;;;;19.10;47.38;99928.13;5132261;27;19933;-69
2023/04/24 05:32:27;;;;;;;;;;;;;;;19.10;47.61;99924.59;5129844;27;19922;-68
2023/04/24 05:34:53;;;;;;;;;;;;;;;19.09;47.51;99926.47;5128980;27;19912;-69
2023/04/24 05:37:18;;;;;;;;;;;;;;;19.09;47.70;99929.16;5130374;27;19919;-69
2023/04/24 05:39:43;;;;;;;;;;;;;;;19.09;47.79;99931.84;5132127;27;19931;-69
2023/04/24 05:42:08;;;;;;;;;;;;;;;19.09;47.52;99939.94;5132606;27;19927;-69
2023/04/24 05:44:33;;;;;;;;;;;;;;;19.08;47.53;99932.88;5128430;27;19911;-69
2023/04/24 05:46:59;;;;;;;;;;;;;;;19.09;47.27;99941.81;5130574;27;19916;-69
2023/04/24 05:49:24;;;;;;;;;;;;;;;19.08;47.60;99938.28;5140149;27;19912;-69
2023/04/24 05:51:49;;;;;;;;;;;;;;;19.08;47.65;99942.84;5134193;27;19933;-69
2023/04/24 05:54:14;;;;;;;;;;;;;;;19.08;47.46;99945.53;5134902;27;19923;-70
2023/04/24 05:56:40;;;;;;;;;;;;;;;19.07;47.53;99947.38;5131733;27;19919;-70
2023/04/24 05:59:05;;;;;;;;;;;;;;;19.08;47.58;99945.53;5131926;27;19942;-69
2023/04/24 06:01:31;;;;;;;;;;;;;;;19.08;47.42;99948.22;5131105;27;19987;-69
2023/04/24 06:03:56;;;;;;;;;;;;;;;19.07;47.34;99950.06;5130306;27;20735;-70
2023/04/24 06:06:21;;;;;;;;;;;;;;;19.07;47.34;99950.06;5129799;27;19915;-69
2023/04/24 06:08:46;;;;;;;;;;;;;;;19.07;47.29;99950.06;5117817;27;19918;-69
2023/04/24 06:11:12;;;;;;;;;;;;;;;19.07;47.55;99954.63;5133534;27;19912;-69
2023/04/24 06:13:37;;;;;;;;;;;;;;;19.07;47.54;99960.00;5129056;28;20366;-75
2023/04/24 06:16:02;;;;;;;;;;;;;;;19.06;47.27;99959.19;5114997;28;19950;-69
2023/04/24 06:18:27;;;;;;;;;;;;;;;19.07;47.40;99957.31;5135339;28;19922;-68
2023/04/24 06:20:52;;;;;;;;;;;;;;;19.06;47.31;99964.56;5134392;28;20289;-69
2023/04/24 06:23:18;;;;;;;;;;;;;;;19.07;47.37;99979.69;5136085;28;19971;-69
2023/04/24 06:25:43;;;;;;;;;;;;;;;19.06;47.34;99978.03;5129854;27;19969;-69
2023/04/24 06:28:08;;;;;;;;;;;;;;;19.06;47.33;99986.13;5132646;28;20424;-70
2023/04/24 06:30:33;;;;;;;;;;;;;;;19.06;47.43;99986.13;5129415;28;19941;-70
2023/04/24 06:32:58;;;;;;;;;;;;;;;19.05;47.32;99989.84;5130382;28;19912;-69
2023/04/24 06:35:23;;;;;;;;;;;;;;;19.06;47.12;99998.75;5129779;28;19933;-70
2023/04/24 06:37:49;;;;;;;;;;;;;;;19.05;46.96;99999.78;5109955;28;19918;-69
2023/04/24 06:40:14;;;;;;;;;;;;;;;19.04;47.26;99998.97;5128686;27;19922;-69
2023/04/24 06:42:39;;;;;;;;;;;;;;;19.04;47.19;100001.66;5132112;28;19920;-69
2023/04/24 06:45:05;;;;;;;;;;;;;;;19.04;47.16;100008.91;5132464;28;19975;-69
2023/04/24 06:47:30;;;;;;;;;;;;;;;19.03;47.13;100008.06;5131660;28;20401;-70
2023/04/24 06:49:56;;;;;;;;;;;;;;;19.02;47.39;100001.00;5113022;28;19912;-70
2023/04/24 06:52:21;;;;;;;;;;;;;;;19.03;47.31;100020.69;5133639;27;19911;-70
2023/04/24 06:54:46;;;;;;;;;;;;;;;19.03;47.17;100018.00;5129204;27;19920;-70
2023/04/24 06:57:11;;;;;;;;;;;;;;;19.03;47.12;100013.47;5130008;27;19923;-70
2023/04/24 06:59:37;;;;;;;;;;;;;;;19.03;47.26;100018.00;5132405;27;20287;-70
2023/04/24 07:02:02;;;;;;;;;;;;;;;19.02;47.29;100022.53;5135833;27;19983;-70
2023/04/24 07:04:28;;;;;;;;;;;;;;;19.02;47.16;100024.41;5136544;27;19930;-70
2023/04/24 07:06:57;;;;;;;;;;;;;;;19.02;47.04;100024.41;5131634;27;19911;-70
2023/04/24 07:09:23;;;;;;;;;;;;;;;19.03;47.01;100032.31;5136094;27;19916;-70
2023/04/24 07:11:49;;;;;;;;;;;;;;;19.03;47.12;100028.75;5114000;27;19912;-69
2023/04/24 07:14:14;;;;;;;;;;;;;;;19.04;47.08;100033.97;5131333;27;19995;-67
2023/04/24 07:16:39;;;;;;;;;;;;;;;19.03;47.32;100039.53;5136399;27;19915;-69
2023/04/24 07:19:05;;;;;;;;;;;;;;;19.02;47.07;100040.56;5133018;27;19965;-69
2023/04/24 07:21:31;;;;;;;;;;;;;;;19.02;47.08;100033.31;5131700;27;19931;-69
2023/04/24 07:23:57;;;;;;;;;;;;;;;19.02;47.08;100038.72;5137694;27;19945;-69
2023/04/24 07:26:22;;;;;;;;;;;;;;;19.02;47.25;100043.25;5129470;27;19919;-69
2023/04/24 07:28:47;;;;;;;;;;;;;;;19.02;47.30;100046.78;5114613;27;19918;-69
2023/04/24 07:31:12;;;;;;;;;;;;;;;19.01;47.08;100047.81;5129959;27;19983;-69
2023/04/24 07:33:37;;;;;;;;;;;;;;;19.02;47.23;100048.66;5133526;27;19942;-68
2023/04/24 07:36:03;;;;;;;;;;;;;;;19.01;47.20;100047.81;5131536;27;19933;-71
2023/04/24 07:38:31;;;;;;;;;;;;;;;19.01;47.09;100055.06;5117958;27;19916;-69
2023/04/24 07:40:57;;;;;;;;;;;;;;;19.02;47.12;100056.72;5129898;27;19927;-68
2023/04/24 07:43:23;;;;;;;;;;;;;;;19.00;47.33;100062.31;5131572;27;20069;-69
2023/04/24 07:45:49;;;;;;;;;;;;;;;19.01;47.23;100072.06;5136412;27;19922;-69
2023/04/24 07:48:16;;;;;;;;;;;;;;;18.62;47.30;100016.69;5136303;27;19947;-68
2023/04/24 07:50:41;;;;;;;;;;;;;;;19.01;47.18;100079.31;5132835;27;19919;-69
2023/04/24 07:53:06;;;;;;;;;;;;;;;19.01;47.08;100082.00;5131841;27;20306;-69
2023/04/24 07:55:31;;;;;;;;;;;;;;;18.98;47.32;100089.44;5136674;27;20458;-70
2023/04/24 07:57:56;;;;;;;;;;;;;;;18.98;47.20;100086.75;5132769;27;19916;-69
2023/04/24 08:00:21;;;;;;;;;;;;;;;18.98;47.27;100097.50;5131916;27;19921;-68
2023/04/24 08:02:47;;;;;;;;;;;;;;;18.97;47.23;100101.25;5133541;27;19920;-69
2023/04/24 08:05:12;;;;;;;;;;;;;;;18.98;47.06;100102.06;5141367;27;19927;-68
2023/04/24 08:07:37;;;;;;;;;;;;;;;18.97;47.40;100106.63;5131853;27;19922;-70
2023/04/24 08:10:03;;;;;;;;;;;;;;;18.98;47.13;100112.84;5135257;27;20376;-69
2023/04/24 08:12:28;;;;;;;;;;;;;;;18.99;47.35;100128.00;5135183;27;19919;-69
2023/04/24 08:14:54;;;;;;;;;;;;;;;18.98;47.23;100134.41;5134557;27;19920;-69
2023/04/24 08:17:19;;;;;;;;;;;;;;;19.00;47.26;100142.31;5137669;27;19920;-69
2023/04/24 08:19:48;;;;;;;;;;;;;;;19.00;47.40;100140.44;5133032;27;19923;-69
2023/04/24 08:22:13;;;;;;;;;;;;;;;19.01;47.12;100152.06;5132854;27;19924;-69
2023/04/24 08:24:38;;;;;;;;;;;;;;;19.02;47.36;100168.03;5129218;27;19912;-69
2023/04/24 08:27:03;;;;;;;;;;;;;;;19.02;46.94;100168.03;5131652;27;19950;-70
2023/04/24 08:29:29;;;;;;;;;;;;;;;19.03;47.18;100176.94;5133466;27;19950;-68
2023/04/24 08:31:54;;;;;;;;;;;;;;;19.04;46.89;100184.03;5129979;27;19920;-68
2023/04/24 08:34:20;;;;;;;;;;;;;;;19.05;47.15;100183.81;5129840;27;19915;-69
2023/04/24 08:36:45;;;;;;;;;;;;;;;19.07;47.01;100205.19;5134453;27;20853;-69
2023/04/24 08:39:10;;;;;;;;;;;;;;;19.08;46.70;100207.72;5141004;27;19922;-68
2023/04/24 08:41:35;;;;;;;;;;;;;;;19.08;46.93;100213.09;5135953;27;19923;-68
2023/04/24 08:44:01;;;;;;;;;;;;;;;19.08;46.77;100213.09;5139435;27;20010;-68
2023/04/24 08:46:26;;;;;;;;;;;;;;;19.09;46.80;100220.16;5134645;27;19911;-68
2023/04/24 08:48:52;;;;;;;;;;;;;;;19.10;46.80;100224.50;5133037;27;19918;-69
2023/04/24 08:51:17;;;;;;;;;;;;;;;19.11;46.73;100238.81;5136424;27;20348;-69
2023/04/24 08:53:42;;;;;;;;;;;;;;;19.11;46.43;100231.56;5110090;27;19915;-68
2023/04/24 08:56:07;;;;;;;;;;;;;;;19.11;46.63;100234.25;5129759;27;19975;-68
2023/04/24 08:58:32;;;;;;;;;;;;;;;19.12;46.68;100241.34;5131227;27;19916;-68
2023/04/24 09:00:58;;;;;;;;;;;;;;;19.13;46.43;100255.66;5113711;27;19926;-69
2023/04/24 09:03:23;;;;;;;;;;;;;;;19.14;46.33;100254.63;5128374;27;19916;-69
2023/04/24 09:05:50;;;;;;;;;;;;;;;19.15;46.53;100261.66;5128547;27;19955;-69
2023/04/24 09:08:15;;;;;;;;;;;;;;;19.16;46.34;100260.69;5134361;27;20395;-70
2023/04/24 09:10:41;;;;;;;;;;;;;;;19.16;46.44;100261.50;5132805;27;19919;-69
2023/04/24 09:13:08;;;;;;;;;;;;;;;19.17;46.30;100267.72;5130611;27;19999;-69
2023/04/24 09:15:34;;;;;;;;;;;;;;;19.18;46.37;100272.91;5131197;27;19920;-69
2023/04/24 09:17:59;;;;;;;;;;;;;;;19.19;46.48;100282.66;5129876;27;19915;-69
2023/04/24 09:20:25;;;;;;;;;;;;;;;19.19;46.61;100277.28;5117330;27;19979;-70
2023/04/24 09:22:53;;;;;;;;;;;;;;;19.21;46.28;100280.66;5130009;27;19920;-69
2023/04/24 09:25:18;;;;;;;;;;;;;;;19.22;46.43;100284.16;5115493;27;19927;-69
2023/04/24 09:27:44;;;;;;;;;;;;;;;19.23;46.54;100291.22;5130854;27;19974;-70
2023/04/24 09:30:10;;;;;;;;;;;;;;;19.25;46.29;100304.53;5132928;27;19919;-70
2023/04/24 09:32:35;;;;;;;;;;;;;;;19.25;46.53;100299.97;5109921;27;19950;-69
2023/04/24 09:35:09;;;;;;;;;;;;;;;19.27;46.44;100311.41;5129407;27;19927;-69
2023/04/24 09:37:38;;;;;;;;;;;;;;;19.29;46.36;100308.53;5126682;27;20919;-69
2023/04/24 09:40:12;;;;;;;;;;;;;;;19.29;46.44;100313.94;5128096;27;19915;-70
2023/04/24 09:42:38;;;;;;;;;;;;;;;19.31;46.37;100317.25;5132529;27;19923;-70
2023/04/24 09:45:03;;;;;;;;;;;;;;;19.33;46.34;100332.22;5134915;27;20022;-70
2023/04/24 09:47:35;;;;;;;;;;;;;;;19.35;46.16;100330.19;5109636;27;19922;-70
2023/04/24 09:50:01;;;;;;;;;;;;;;;19.38;45.93;100337.91;5136110;27;20375;-70
2023/04/24 09:52:26;;;;;;;;;;;;;;;19.40;45.88;100341.22;5114352;27;19926;-70
2023/04/24 09:54:52;;;;;;;;;;;;;;;19.42;45.97;100351.84;5133422;27;19916;-70
2023/04/24 09:57:17;;;;;;;;;;;;;;;19.45;45.84;100355.00;5127440;27;20322;-69
2023/04/24 09:59:45;;;;;;;;;;;;;;;19.47;45.74;100362.91;5131409;27;19919;-69
2023/04/24 10:02:20;;;;;;;;;;;;;;;19.49;45.90;100368.94;5130380;27;19923;-70
2023/04/24 10:04:58;;;;;;;;;;;;;;;19.50;45.68;100370.63;5136506;27;19919;-70
2023/04/24 10:07:25;;;;;;;;;;;;;;;19.53;45.77;100378.34;5136850;27;20013;-70
2023/04/24 10:09:51;;;;;;;;;;;;;;;19.55;45.64;100375.47;5131746;27;20287;-70
2023/04/24 10:12:16;;;;;;;;;;;;;;;19.58;45.53;100391.25;5114190;28;20551;-71
2023/04/24 10:14:41;;;;;;;;;;;;;;;19.58;45.52;100391.25;5110990;28;19930;-70
2023/04/24 10:17:06;;;;;;;;;;;;;;;19.60;45.42;100390.06;5130683;27;19923;-72
2023/04/24 10:19:31;;;;;;;;;;;;;;;19.62;45.46;100392.59;5114890;28;19915;-70
2023/04/24 10:21:57;;;;;;;;;;;;;;;19.63;45.23;100397.81;5112454;28;20747;-70
2023/04/24 10:24:22;;;;;;;;;;;;;;;19.65;45.22;100397.63;5114689;28;19998;-68
2023/04/24 10:26:50;;;;;;;;;;;;;;;19.67;45.29;100400.97;5132644;27;19912;-69
2023/04/24 10:29:16;;;;;;;;;;;;;;;19.69;45.14;100405.16;5131872;28;19911;-69
2023/04/24 10:31:45;;;;;;;;;;;;;;;19.72;44.98;100414.75;5112247;27;19923;-69
2023/04/24 10:34:10;;;;;;;;;;;;;;;19.73;45.16;100413.72;5138813;27;19927;-68
2023/04/24 10:36:36;;;;;;;;;;;;;;;19.75;45.22;100417.03;5135766;27;19912;-69
2023/04/24 10:39:02;;;;;;;;;;;;;;;19.78;44.77;100422.06;5123082;27;19923;-72
2023/04/24 10:41:27;;;;;;;;;;;;;;;19.81;44.98;100432.50;5135355;27;19920;-72
2023/04/24 10:44:09;;;;;;;;;;;;;;;19.83;44.86;100426.91;5120196;27;19937;-70
2023/04/24 10:46:35;;;;;;;;;;;;;;;19.87;45.20;100441.72;5137393;27;20583;-70
2023/04/24 10:49:03;;;;;;;;;;;;;;;19.89;45.07;100431.59;5134986;27;19919;-71
2023/04/24 10:51:45;;;;;;;;;;;;;;;19.91;44.85;100448.41;5133862;27;19968;-70
2023/04/24 10:54:29;;;;;;;;;;;;;;;19.93;44.83;100451.78;5131968;27;19927;-70
2023/04/24 10:57:14;;;;;;;;;;;;;;;19.95;44.87;100457.81;5134475;27;20548;-70
2023/04/24 10:59:39;;;;;;;;;;;;;;;20.01;44.61;100465.16;5132989;27;19965;-69
2023/04/24 11:02:05;;;;;;;;;;;;;;;20.05;44.78;100471.00;5135387;27;19923;-71
2023/04/24 11:04:31;;;;;;;;;;;;;;;20.07;44.55;100464.41;5105421;27;19911;-71
2023/04/24 11:06:56;;;;;;;;;;;;;;;20.10;44.21;100474.84;5136496;27;19911;-71
2023/04/24 11:09:21;;;;;;;;;;;;;;;20.13;44.39;100477.13;5133608;27;19915;-71
2023/04/24 11:11:47;;;;;;;;;;;;;;;20.17;43.95;100483.00;5132812;27;19972;-72
2023/04/24 11:14:15;;;;;;;;;;;;;;;20.19;44.01;100486.38;5120540;27;19927;-71
2023/04/24 11:16:54;;;;;;;;;;;;;;;20.22;43.88;100486.00;5117412;27;19983;-70
2023/04/24 11:19:23;;;;;;;;;;;;;;;20.24;44.03;100486.66;5113605;27;19912;-70
2023/04/24 11:21:54;;;;;;;;;;;;;;;20.27;43.55;100502.47;5130658;27;19919;-70
2023/04/24 11:24:34;;;;;;;;;;;;;;;20.27;43.64;100497.06;5114462;27;19922;-70
2023/04/24 11:27:05;;;;;;;;;;;;;;;20.30;43.75;100495.84;5132923;27;19912;-71
2023/04/24 11:29:52;;;;;;;;;;;;;;;20.31;43.38;100495.69;5134448;27;19955;-71
2023/04/24 11:32:24;;;;;;;;;;;;;;;20.34;43.45;100494.44;5117166;27;20016;-70
2023/04/24 11:34:50;;;;;;;;;;;;;;;20.37;43.36;100508.41;5137581;27;19930;-72
2023/04/24 11:37:16;;;;;;;;;;;;;;;20.38;43.61;100507.38;5130464;27;19919;-72
2023/04/24 11:39:41;;;;;;;;;;;;;;;20.41;43.45;100503.47;5121049;27;20010;-71
2023/04/24 11:42:07;;;;;;;;;;;;;;;20.42;43.38;100511.38;5130867;27;19924;-73
2023/04/24 11:44:33;;;;;;;;;;;;;;;20.44;43.32;100514.75;5130437;27;19916;-71
2023/04/24 11:46:58;;;;;;;;;;;;;;;20.45;43.52;100516.41;5130608;27;20002;-72
2023/04/24 11:49:23;;;;;;;;;;;;;;;20.47;43.43;100519.78;5136558;27;19958;-71
2023/04/24 11:51:49;;;;;;;;;;;;;;;20.49;43.08;100519.59;5120713;27;19916;-71
2023/04/24 11:54:14;;;;;;;;;;;;;;;20.53;43.26;100520.06;5132576;27;19951;-72
2023/04/24 11:56:40;;;;;;;;;;;;;;;20.57;43.25;100524.06;5114406;27;19920;-72
2023/04/24 11:59:05;;;;;;;;;;;;;;;20.61;43.12;100537.00;5110716;28;19915;-72
2023/04/24 12:01:41;;;;;;;;;;;;;;;20.65;42.81;100527.50;5134378;27;20029;-72
2023/04/24 12:04:07;;;;;;;;;;;;;;;20.71;42.67;100539.41;5132942;27;19974;-72
2023/04/24 12:06:32;;;;;;;;;;;;;;;20.75;42.77;100532.59;5136276;27;19916;-71
2023/04/24 12:08:58;;;;;;;;;;;;;;;20.77;42.76;100538.63;5134489;27;20053;-73
2023/04/24 12:11:23;;;;;;;;;;;;;;;20.80;42.31;100535.56;5131934;27;19935;-71
2023/04/24 12:13:48;;;;;;;;;;;;;;;20.81;42.51;100542.63;5133830;27;19930;-72
2023/04/24 12:16:14;;;;;;;;;;;;;;;20.83;42.30;100540.59;5133629;27;19983;-72
2023/04/24 12:18:43;;;;;;;;;;;;;;;20.83;42.18;100543.28;5132109;27;19954;-72
2023/04/24 12:21:18;;;;;;;;;;;;;;;20.84;42.21;100544.13;5133430;27;19919;-73
2023/04/24 12:23:44;;;;;;;;;;;;;;;20.85;42.10;100553.91;5125960;27;19912;-74
2023/04/24 12:26:09;;;;;;;;;;;;;;;20.85;41.91;100551.19;5130874;27;19915;-73
2023/04/24 12:28:38;;;;;;;;;;;;;;;20.85;41.99;100557.44;5139301;27;19939;-73
2023/04/24 12:31:03;;;;;;;;;;;;;;;20.87;41.87;100560.81;5134242;27;20421;-69
2023/04/24 12:33:31;;;;;;;;;;;;;;;20.89;42.20;100569.53;5133635;27;19921;-71
2023/04/24 12:35:57;;;;;;;;;;;;;;;20.92;41.93;100561.06;5132340;27;19912;-69